Time;durP1;ratioP1;P1;durP2;ratioP2;P2;SDS_P1;SDS_P2;PMS_P1;PMS_P2;Temp;Humidity;BMP_temperature;BMP_pressure;BME280_temperature;BME280_humidity;BME280_pressure;Samples;Min_cycle;Max_cycle;Signal;HPM_P1;HPM_P2
2022/08/31 00:04:09;;;;;;;15.10;5.90;;;24.00;70.20;;;;;;5023981;28;20091;-74
2022/08/31 00:06:35;;;;;;;10.02;5.75;;;24.00;70.10;;;;;;5023621;28;20038;-74
2022/08/31 00:09:03;;;;;;;10.57;5.32;;;23.90;70.00;;;;;;5023874;28;20056;-74
2022/08/31 00:11:30;;;;;;;12.48;5.85;;;23.90;70.00;;;;;;5027723;28;20037;-74
2022/08/31 00:13:59;;;;;;;10.35;5.57;;;23.80;70.20;;;;;;5027789;28;20937;-74
2022/08/31 00:16:28;;;;;;;12.88;5.35;;;23.80;70.20;;;;;;5026872;28;20069;-74
2022/08/31 00:18:54;;;;;;;8.68;5.40;;;23.80;70.20;;;;;;5026747;28;20037;-74
2022/08/31 00:21:23;;;;;;;8.85;5.10;;;23.70;70.40;;;;;;5027895;28;20072;-74
2022/08/31 00:23:49;;;;;;;9.70;5.68;;;23.60;70.50;;;;;;5027742;28;20040;-73
2022/08/31 00:26:16;;;;;;;8.70;5.13;;;23.60;70.60;;;;;;5028566;28;20061;-73
2022/08/31 00:28:42;;;;;;;11.90;5.53;;;23.70;70.60;;;;;;5027342;28;20599;-74
2022/08/31 00:31:08;;;;;;;7.28;5.25;;;23.70;70.50;;;;;;5026995;28;20128;-75
2022/08/31 00:33:35;;;;;;;8.82;5.40;;;23.60;70.20;;;;;;5043051;28;20425;-74
2022/08/31 00:36:04;;;;;;;9.10;5.10;;;23.60;70.20;;;;;;5027766;28;20045;-74
2022/08/31 00:38:30;;;;;;;9.15;5.57;;;23.70;70.30;;;;;;5024803;28;20029;-75
2022/08/31 00:40:56;;;;;;;9.52;5.07;;;23.60;70.00;;;;;;5026911;28;20108;-75
2022/08/31 00:43:46;;;;;;;11.23;5.60;;;23.60;70.20;;;;;;5027211;28;20120;-75
2022/08/31 00:46:16;;;;;;;8.30;5.47;;;23.60;70.30;;;;;;5038557;28;20044;-74
2022/08/31 00:49:06;;;;;;;8.60;5.00;;;23.50;70.40;;;;;;5027541;28;20504;-74
2022/08/31 00:51:38;;;;;;;7.00;5.47;;;23.60;70.40;;;;;;5027590;28;20037;-74
2022/08/31 00:54:06;;;;;;;8.00;5.43;;;23.50;70.40;;;;;;5008733;28;20137;-74
2022/08/31 00:56:34;;;;;;;7.35;5.60;;;23.50;70.60;;;;;;5021525;28;20349;-74
2022/08/31 00:59:00;;;;;;;10.15;4.85;;;23.50;70.80;;;;;;5025583;28;20472;-74
2022/08/31 01:01:27;;;;;;;9.02;5.30;;;23.50;70.80;;;;;;5022399;28;20112;-74
2022/08/31 01:03:54;;;;;;;6.88;5.18;;;23.40;70.90;;;;;;5026516;28;20065;-74
2022/08/31 01:06:21;;;;;;;10.30;4.80;;;23.40;71.60;;;;;;5026385;28;20068;-73
2022/08/31 01:08:49;;;;;;;8.13;5.63;;;23.40;71.10;;;;;;5025439;28;20131;-74
2022/08/31 01:11:17;;;;;;;11.82;5.05;;;23.40;70.80;;;;;;5026781;28;20041;-75
2022/08/31 01:13:43;;;;;;;8.63;5.57;;;23.40;70.80;;;;;;5022411;28;20247;-74
2022/08/31 01:16:15;;;;;;;10.27;5.22;;;23.30;71.70;;;;;;5008911;28;20029;-74
2022/08/31 01:18:43;;;;;;;7.60;5.10;;;23.30;71.10;;;;;;5024353;28;20030;-75
2022/08/31 01:21:31;;;;;;;9.75;5.60;;;23.20;71.30;;;;;;5027267;28;20049;-76
2022/08/31 01:24:00;;;;;;;7.15;5.10;;;23.20;71.50;;;;;;5026712;28;20041;-76
2022/08/31 01:26:28;;;;;;;5.65;5.03;;;23.30;71.70;;;;;;5026214;28;20029;-76
2022/08/31 01:28:59;;;;;;;11.05;5.20;;;23.10;72.00;;;;;;5009157;28;20116;-75
2022/08/31 01:31:30;;;;;;;8.65;5.30;;;23.10;72.20;;;;;;5025597;28;20037;-75
2022/08/31 01:33:56;;;;;;;8.80;6.15;;;23.10;72.10;;;;;;5009517;28;20044;-75
2022/08/31 01:36:24;;;;;;;10.57;5.43;;;23.10;72.40;;;;;;5026862;28;20500;-75
2022/08/31 01:38:49;;;;;;;7.13;5.57;;;23.10;72.40;;;;;;5025487;28;20049;-75
2022/08/31 01:41:16;;;;;;;7.18;5.43;;;23.20;72.40;;;;;;5027126;28;20029;-75
2022/08/31 01:43:43;;;;;;;8.77;5.65;;;23.00;72.80;;;;;;5009569;28;20864;-75
2022/08/31 01:46:12;;;;;;;8.48;5.50;;;23.00;73.20;;;;;;5008516;28;20538;-75
2022/08/31 01:48:40;;;;;;;9.75;5.80;;;23.00;73.00;;;;;;5007436;28;20525;-74
2022/08/31 01:51:08;;;;;;;12.75;5.82;;;23.00;73.30;;;;;;5024989;28;20042;-75
2022/08/31 01:53:34;;;;;;;9.85;5.63;;;22.90;73.60;;;;;;5024692;28;20035;-75
2022/08/31 01:56:00;;;;;;;9.15;6.95;;;23.00;73.40;;;;;;5025480;28;20026;-75
2022/08/31 01:58:26;;;;;;;8.77;6.38;;;22.90;73.40;;;;;;5025326;28;20072;-75
2022/08/31 02:01:17;;;;;;;11.50;7.15;;;22.90;73.50;;;;;;5022541;28;20029;-75
2022/08/31 02:03:43;;;;;;;9.52;7.40;;;22.90;73.50;;;;;;5020551;28;20547;-75
2022/08/31 02:06:11;;;;;;;9.85;6.43;;;22.80;73.60;;;;;;5024828;28;20048;-75
2022/08/31 02:08:38;;;;;;;7.63;6.68;;;22.80;74.00;;;;;;5021338;28;20123;-75
2022/08/31 02:11:05;;;;;;;10.63;6.40;;;22.80;74.20;;;;;;5042249;28;20048;-75
2022/08/31 02:13:32;;;;;;;10.43;7.38;;;22.80;74.30;;;;;;5037359;28;20065;-75
2022/08/31 02:15:59;;;;;;;10.52;6.47;;;22.80;73.60;;;;;;5024947;28;20128;-75
2022/08/31 02:18:25;;;;;;;9.80;6.68;;;22.90;73.70;;;;;;5035864;28;20132;-75
2022/08/31 02:20:51;;;;;;;9.30;6.35;;;22.80;73.80;;;;;;5026280;28;20084;-75
2022/08/31 02:23:17;;;;;;;8.25;6.03;;;22.80;73.80;;;;;;5024374;28;20037;-75
2022/08/31 02:25:44;;;;;;;9.95;5.85;;;22.80;73.80;;;;;;5025968;28;20033;-75
2022/08/31 02:28:12;;;;;;;7.40;5.38;;;22.80;73.90;;;;;;5024606;28;20041;-75
2022/08/31 02:30:42;;;;;;;10.93;5.93;;;22.80;73.80;;;;;;5023013;28;20038;-75
2022/08/31 02:33:08;;;;;;;10.75;6.65;;;22.80;74.10;;;;;;5024251;28;20091;-75
2022/08/31 02:35:36;;;;;;;10.23;6.40;;;22.80;74.10;;;;;;5024741;28;20451;-75
2022/08/31 02:38:04;;;;;;;12.52;6.18;;;22.60;74.70;;;;;;5021172;28;20471;-75
2022/08/31 02:40:31;;;;;;;6.53;5.53;;;22.60;74.70;;;;;;5023693;28;20038;-75
2022/08/31 02:42:57;;;;;;;8.00;5.75;;;22.60;74.80;;;;;;5024539;28;20042;-75
2022/08/31 02:45:25;;;;;;;12.77;6.53;;;22.60;74.70;;;;;;5024024;28;20038;-75
2022/08/31 02:47:57;;;;;;;8.00;5.55;;;22.70;74.50;;;;;;5023937;28;20106;-75
2022/08/31 02:50:30;;;;;;;6.97;5.50;;;22.60;74.90;;;;;;5021395;28;20037;-75
2022/08/31 02:52:57;;;;;;;8.80;5.75;;;22.60;75.00;;;;;;5024843;28;20042;-75
2022/08/31 02:55:25;;;;;;;8.63;5.90;;;22.60;74.80;;;;;;5024049;28;20079;-75
2022/08/31 02:57:51;;;;;;;9.30;5.82;;;22.60;74.70;;;;;;5018390;28;20025;-76
2022/08/31 03:00:21;;;;;;;9.10;6.13;;;22.60;74.90;;;;;;5023648;28;20033;-75
2022/08/31 03:02:47;;;;;;;11.70;6.18;;;22.60;75.10;;;;;;5025663;28;20029;-76
2022/08/31 03:05:13;;;;;;;9.63;5.15;;;22.60;75.00;;;;;;5025428;28;20178;-75
2022/08/31 03:07:40;;;;;;;9.23;5.40;;;22.50;75.10;;;;;;5023965;28;20061;-75
2022/08/31 03:10:09;;;;;;;6.40;5.35;;;22.50;74.80;;;;;;5022157;28;20041;-75
2022/08/31 03:12:36;;;;;;;9.27;5.22;;;22.50;74.60;;;;;;5006494;28;20211;-76
2022/08/31 03:15:04;;;;;;;10.27;5.80;;;22.50;74.80;;;;;;5007222;28;20136;-76
2022/08/31 03:17:29;;;;;;;8.27;5.80;;;22.60;74.60;;;;;;5024115;28;20064;-75
2022/08/31 03:20:01;;;;;;;7.57;5.28;;;22.60;74.60;;;;;;5024236;28;20479;-75
2022/08/31 03:22:28;;;;;;;9.73;5.63;;;22.50;74.50;;;;;;5024232;28;20402;-75
2022/08/31 03:24:54;;;;;;;7.70;5.40;;;22.50;74.30;;;;;;5023095;28;20287;-75
2022/08/31 03:27:23;;;;;;;9.05;5.22;;;22.50;74.40;;;;;;5041140;28;20052;-75
2022/08/31 03:29:50;;;;;;;7.68;5.20;;;22.40;74.40;;;;;;5008075;28;20040;-74
2022/08/31 03:32:22;;;;;;;6.20;4.75;;;22.40;74.50;;;;;;5024502;28;20095;-75
2022/08/31 03:34:58;;;;;;;8.18;5.05;;;22.50;74.40;;;;;;5023747;28;20069;-74
2022/08/31 03:37:25;;;;;;;6.88;4.95;;;22.50;74.30;;;;;;5019303;28;20404;-76
2022/08/31 03:39:56;;;;;;;8.43;4.70;;;22.50;74.20;;;;;;5006726;28;20041;-76
2022/08/31 03:42:24;;;;;;;10.82;5.07;;;22.50;74.00;;;;;;5025790;28;20393;-78
2022/08/31 03:44:50;;;;;;;10.80;5.07;;;22.50;74.10;;;;;;5027644;28;20504;-78
2022/08/31 03:47:25;;;;;;;8.20;4.75;;;22.50;74.30;;;;;;5011451;28;20061;-80
2022/08/31 03:49:51;;;;;;;6.63;5.22;;;22.50;73.90;;;;;;5011185;28;20037;-80
2022/08/31 03:52:22;;;;;;;6.45;4.57;;;22.50;73.80;;;;;;5027017;28;20036;-81
2022/08/31 03:54:59;;;;;;;7.68;4.75;;;22.50;74.20;;;;;;5027272;28;20053;-81
2022/08/31 03:57:25;;;;;;;7.38;4.80;;;22.50;73.80;;;;;;5027460;28;20037;-81
2022/08/31 03:59:56;;;;;;;8.85;4.82;;;22.50;73.90;;;;;;5010779;28;20072;-80
2022/08/31 04:02:41;;;;;;;8.05;4.95;;;22.40;74.10;;;;;;5027574;28;20033;-79
2022/08/31 04:05:35;;;;;;;5.68;4.47;;;22.40;74.10;;;;;;5026838;28;20432;-78
2022/08/31 04:08:21;;;;;;;7.85;4.65;;;22.50;73.90;;;;;;5028419;28;20049;-80
2022/08/31 04:10:51;;;;;;;6.47;4.53;;;22.30;74.30;;;;;;5027500;28;20054;-79
2022/08/31 04:13:40;;;;;;;7.13;4.43;;;22.40;74.30;;;;;;5027010;28;20073;-78
2022/08/31 04:16:27;;;;;;;6.45;4.10;;;22.40;73.90;;;;;;4986070;28;20704;-77
2022/08/31 04:19:14;;;;;;;7.50;4.40;;;22.50;73.50;;;;;;4986716;28;20054;-77
2022/08/31 04:21:52;;;;;;;6.05;3.80;;;22.50;73.30;;;;;;4969130;28;20041;-76
2022/08/31 04:24:18;;;;;;;6.00;4.22;;;22.50;73.30;;;;;;4970263;28;20034;-75
2022/08/31 04:26:51;;;;;;;5.57;4.03;;;22.50;72.90;;;;;;4980856;28;20096;-78
2022/08/31 04:29:17;;;;;;;7.22;3.80;;;22.60;72.70;;;;;;4986172;28;20440;-77
2022/08/31 04:31:44;;;;;;;6.88;4.13;;;22.60;72.60;;;;;;4985918;28;20031;-77
2022/08/31 04:34:11;;;;;;;7.70;3.80;;;22.60;72.50;;;;;;4969962;28;20166;-77
2022/08/31 04:36:37;;;;;;;6.13;3.90;;;22.70;72.30;;;;;;4969369;28;20027;-77
2022/08/31 04:39:05;;;;;;;6.00;4.15;;;22.60;72.30;;;;;;4969922;28;20030;-77
2022/08/31 04:41:34;;;;;;;9.88;4.47;;;22.60;72.80;;;;;;4985892;28;20413;-78
2022/08/31 04:44:02;;;;;;;8.32;4.05;;;22.60;73.00;;;;;;4970428;28;20482;-78
2022/08/31 04:46:29;;;;;;;8.85;4.28;;;22.60;72.90;;;;;;4980369;28;20034;-78
2022/08/31 04:48:56;;;;;;;7.00;4.55;;;22.80;72.70;;;;;;4968497;28;20096;-76
2022/08/31 04:51:25;;;;;;;8.35;4.30;;;23.10;72.20;;;;;;4966088;28;20034;-76
2022/08/31 04:53:52;;;;;;;7.57;3.90;;;23.50;71.30;;;;;;4984088;28;20045;-76
2022/08/31 04:56:24;;;;;;;8.10;4.30;;;24.00;70.30;;;;;;5025826;28;20120;-76
2022/08/31 04:59:07;;;;;;;6.32;4.18;;;24.30;69.00;;;;;;5025059;28;20524;-76
2022/08/31 05:01:43;;;;;;;7.95;4.43;;;24.60;68.20;;;;;;5037851;28;20463;-76
2022/08/31 05:04:27;;;;;;;8.63;3.92;;;24.80;67.10;;;;;;5026413;28;20033;-76
2022/08/31 05:06:54;;;;;;;6.07;4.00;;;24.60;66.70;;;;;;5025209;28;20091;-75
2022/08/31 05:09:22;;;;;;;6.35;4.10;;;24.60;67.30;;;;;;5042906;28;20033;-76
2022/08/31 05:11:52;;;;;;;7.70;4.00;;;24.70;67.00;;;;;;5036754;28;20565;-75
2022/08/31 05:14:20;;;;;;;7.63;3.63;;;24.60;66.50;;;;;;5028079;28;20091;-76
2022/08/31 05:16:52;;;;;;;6.30;3.83;;;24.50;67.10;;;;;;5025222;28;20557;-77
2022/08/31 05:19:19;;;;;;;7.25;4.25;;;24.50;67.30;;;;;;5025359;28;20128;-75
2022/08/31 05:21:46;;;;;;;6.60;3.83;;;24.50;67.70;;;;;;5025309;28;20083;-76
2022/08/31 05:24:20;;;;;;;7.35;3.97;;;24.70;67.70;;;;;;5025343;28;20553;-76
2022/08/31 05:26:50;;;;;;;8.20;4.25;;;24.80;66.90;;;;;;5024987;28;20416;-77
2022/08/31 05:29:20;;;;;;;6.47;3.80;;;24.60;66.70;;;;;;5027462;28;20036;-76
2022/08/31 05:31:48;;;;;;;7.88;3.80;;;24.50;67.00;;;;;;5025524;28;20038;-74
2022/08/31 05:34:16;;;;;;;8.23;3.45;;;24.50;67.70;;;;;;5024491;28;20046;-74
2022/08/31 05:36:45;;;;;;;7.57;4.38;;;24.50;67.50;;;;;;5022008;28;20040;-75
2022/08/31 05:39:12;;;;;;;6.80;4.10;;;24.30;67.20;;;;;;5025175;28;20037;-75
2022/08/31 05:41:43;;;;;;;9.00;3.85;;;24.20;67.70;;;;;;5024543;28;20041;-74
2022/08/31 05:44:10;;;;;;;12.20;4.15;;;24.10;68.10;;;;;;5020272;28;20033;-75
2022/08/31 05:46:38;;;;;;;6.28;3.45;;;24.00;67.80;;;;;;5041115;28;20304;-75
2022/08/31 05:49:06;;;;;;;6.38;3.75;;;24.00;68.30;;;;;;5024356;28;20129;-75
2022/08/31 05:51:34;;;;;;;5.60;3.92;;;23.90;68.50;;;;;;5025114;28;20141;-76
2022/08/31 05:54:01;;;;;;;6.90;3.88;;;24.00;68.70;;;;;;5025076;28;20143;-75
2022/08/31 05:56:28;;;;;;;9.48;4.28;;;24.00;68.50;;;;;;5020982;28;20043;-76
2022/08/31 05:58:55;;;;;;;10.02;3.60;;;24.00;68.50;;;;;;5025295;28;20407;-76
2022/08/31 06:01:30;;;;;;;6.40;3.58;;;23.90;68.40;;;;;;5024410;28;20095;-76
2022/08/31 06:04:16;;;;;;;6.55;3.60;;;24.00;68.90;;;;;;5024208;28;20038;-73
2022/08/31 06:06:43;;;;;;;9.73;4.05;;;23.90;68.70;;;;;;5025058;28;20132;-76
2022/08/31 06:09:12;;;;;;;9.88;3.58;;;23.90;68.60;;;;;;5024431;28;20459;-76
2022/08/31 06:11:40;;;;;;;9.30;3.83;;;23.90;68.70;;;;;;5023856;28;20392;-75
2022/08/31 06:14:08;;;;;;;12.80;4.40;;;24.00;68.50;;;;;;5024681;28;20033;-83
2022/08/31 06:16:35;;;;;;;11.32;3.97;;;23.90;68.10;;;;;;5024941;28;20444;-82
2022/08/31 06:19:05;;;;;;;7.32;4.03;;;23.90;68.70;;;;;;5024397;28;20512;-81
2022/08/31 06:21:35;;;;;;;12.88;4.38;;;23.90;68.60;;;;;;4995334;28;20416;-81
2022/08/31 06:24:04;;;;;;;5.45;3.50;;;23.80;68.50;;;;;;4988880;28;20594;-81
2022/08/31 06:26:34;;;;;;;10.75;4.00;;;23.90;68.60;;;;;;5024604;28;20034;-79
2022/08/31 06:29:03;;;;;;;8.38;3.65;;;23.90;68.70;;;;;;5025186;28;20037;-81
2022/08/31 06:31:37;;;;;;;11.07;4.18;;;23.90;68.90;;;;;;5035917;28;20523;-82
2022/08/31 06:34:07;;;;;;;8.80;4.10;;;23.90;68.70;;;;;;5024695;28;20065;-82
2022/08/31 06:36:51;;;;;;;;;;;23.90;68.70;;;;;;5013117;28;20034;-83
2022/08/31 06:39:52;;;;;;;7.38;3.97;;;23.80;69.10;;;;;;4993390;28;19918;-83
2022/08/31 06:42:39;;;;;;;7.70;3.80;;;23.80;68.60;;;;;;5015872;28;20040;-83
2022/08/31 06:45:27;;;;;;;5.57;3.20;;;23.80;68.70;;;;;;5000640;28;20037;-83
2022/08/31 06:48:02;;;;;;;7.32;3.47;;;23.70;67.60;;;;;;5011571;28;20037;-82
2022/08/31 06:50:28;;;;;;;5.32;3.50;;;23.70;67.20;;;;;;5010328;28;20029;-82
2022/08/31 06:52:56;;;;;;;8.15;3.20;;;23.70;67.50;;;;;;5011069;28;20038;-84
2022/08/31 06:55:24;;;;;;;7.97;2.83;;;23.70;67.20;;;;;;5026642;28;20544;-83
2022/08/31 06:58:08;;;;;;;9.70;3.33;;;23.90;67.10;;;;;;5015266;28;20044;-83
2022/08/31 07:00:53;;;;;;;6.33;2.40;;;24.10;66.30;;;;;;5015440;28;20033;-83
2022/08/31 07:03:31;;;;;;;6.63;2.78;;;24.20;65.10;;;;;;5014280;28;20038;-84
2022/08/31 07:06:08;;;;;;;7.78;2.40;;;24.40;65.00;;;;;;5012628;28;20033;-84
2022/08/31 07:08:35;;;;;;;6.18;2.33;;;24.40;63.80;;;;;;5010684;28;20045;-84
2022/08/31 07:11:02;;;;;;;5.07;2.15;;;24.40;63.90;;;;;;5030207;28;20044;-83
2022/08/31 07:13:29;;;;;;;6.20;2.33;;;24.40;63.50;;;;;;5011845;28;20037;-83
2022/08/31 07:16:04;;;;;;;4.05;2.05;;;24.30;64.00;;;;;;4996729;28;20038;-85
2022/08/31 07:18:30;;;;;;;;;;;24.20;64.10;;;;;;5004262;28;20029;-79
2022/08/31 07:21:09;;;;;;;6.43;2.38;;;24.20;63.30;;;;;;5028801;28;19971;-83
2022/08/31 07:23:36;;;;;;;5.38;2.10;;;24.10;63.30;;;;;;5013364;28;20397;-94
2022/08/31 07:26:21;;;;;;;3.20;2.90;;;24.00;64.00;;;;;;5029114;28;20033;-79
2022/08/31 07:28:51;;;;;;;9.50;2.53;;;24.00;63.70;;;;;;5024674;28;20045;-92
2022/08/31 07:31:23;;;;;;;4.78;2.53;;;23.90;64.80;;;;;;5027868;28;20040;-81
2022/08/31 07:33:52;;;;;;;9.45;3.03;;;24.00;64.80;;;;;;5029269;28;20532;-81
2022/08/31 07:36:18;;;;;;;6.57;2.60;;;24.00;64.80;;;;;;5029485;28;20455;-82
2022/08/31 07:44:52;;;;;;;4.95;2.65;;;23.90;65.10;;;;;;4965173;28;20035;-81
2022/08/31 07:47:18;;;;;;;5.57;2.70;;;23.80;65.30;;;;;;4957848;28;20042;-81
2022/08/31 07:49:49;;;;;;;8.70;2.75;;;23.80;65.30;;;;;;4972203;28;20547;-81
2022/08/31 07:52:34;;;;;;;5.10;2.65;;;23.90;65.30;;;;;;4974944;28;20597;-82
2022/08/31 07:55:10;;;;;;;4.35;2.65;;;23.90;65.50;;;;;;4970715;28;20112;-82
2022/08/31 07:57:50;;;;;;;6.95;2.42;;;23.90;65.20;;;;;;4955485;28;20037;-82
2022/08/31 08:00:27;;;;;;;6.32;2.25;;;23.90;65.20;;;;;;4970923;28;20066;-80
2022/08/31 08:02:54;;;;;;;4.88;2.28;;;23.90;65.10;;;;;;4972165;28;20042;-80
2022/08/31 08:05:27;;;;;;;3.42;2.58;;;23.90;65.30;;;;;;4970578;28;20047;-81
2022/08/31 08:08:13;;;;;;;6.38;2.42;;;23.90;65.20;;;;;;4974024;28;20055;-82
2022/08/31 08:11:20;;;;;;;8.27;2.53;;;23.90;65.10;;;;;;4959225;28;20043;-82
2022/08/31 08:14:07;;;;;;;5.15;2.80;;;23.90;64.80;;;;;;4983788;28;20202;-82
2022/08/31 08:16:55;;;;;;;6.97;2.42;;;23.90;65.00;;;;;;4986298;28;20034;-82
2022/08/31 08:19:47;;;;;;;10.20;2.72;;;23.90;65.10;;;;;;5018134;28;20077;-82
2022/08/31 08:22:13;;;;;;;4.40;2.30;;;23.90;65.20;;;;;;5029062;28;20037;-82
2022/08/31 08:24:59;;;;;;;7.35;2.53;;;23.80;66.00;;;;;;5027792;28;20034;-82
2022/08/31 08:27:42;;;;;;;6.57;2.50;;;23.80;65.60;;;;;;5029109;28;20033;-81
2022/08/31 08:30:20;;;;;;;4.72;2.28;;;23.90;65.50;;;;;;5029919;28;20040;-82
2022/08/31 08:32:47;;;;;;;4.97;2.20;;;23.90;65.40;;;;;;5032009;28;20033;-80
2022/08/31 08:35:13;;;;;;;7.75;2.30;;;23.90;65.10;;;;;;5032636;28;20496;-82
2022/08/31 08:37:41;;;;;;;4.35;2.20;;;23.90;65.10;;;;;;5011746;28;20030;-80
2022/08/31 08:40:28;;;;;;;7.82;2.38;;;23.90;64.90;;;;;;5043628;28;20034;-80
2022/08/31 08:42:55;;;;;;;6.40;2.47;;;24.00;65.20;;;;;;5010431;28;20049;-77
2022/08/31 08:45:22;;;;;;;8.57;2.22;;;24.10;65.30;;;;;;5026233;28;20037;-80
2022/08/31 08:47:53;;;;;;;5.68;2.40;;;24.20;65.00;;;;;;5021483;28;20038;-86
2022/08/31 08:50:22;;;;;;;5.93;2.30;;;24.10;64.90;;;;;;5028328;28;20559;-86
2022/08/31 08:52:48;;;;;;;6.82;2.03;;;24.20;65.00;;;;;;5020993;28;20045;-85
2022/08/31 08:55:20;;;;;;;6.95;2.50;;;24.20;64.80;;;;;;5009393;28;21477;-84
2022/08/31 08:57:50;;;;;;;4.10;2.42;;;24.20;64.60;;;;;;5026196;28;20049;-84
2022/08/31 09:00:17;;;;;;;6.93;1.70;;;24.20;64.60;;;;;;5025667;28;20042;-84
2022/08/31 09:03:00;;;;;;;4.80;1.80;;;24.20;64.40;;;;;;5026277;28;20041;-85
2022/08/31 09:06:15;;;;;;;4.80;2.00;;;24.20;64.40;;;;;;4970249;28;20574;-80
2022/08/31 09:09:11;;;;;;;7.10;1.63;;;24.20;64.80;;;;;;4985893;28;20046;-81
2022/08/31 09:11:49;;;;;;;4.80;1.98;;;24.20;64.80;;;;;;4967092;28;20027;-82
2022/08/31 09:14:18;;;;;;;7.10;2.30;;;24.20;64.60;;;;;;4957012;28;20042;-79
2022/08/31 09:16:55;;;;;;;5.63;2.00;;;24.20;64.20;;;;;;4985258;28;20085;-77
2022/08/31 09:19:21;;;;;;;3.17;1.83;;;24.20;64.60;;;;;;4985226;28;20497;-75
2022/08/31 09:21:53;;;;;;;4.47;2.53;;;24.20;64.40;;;;;;4984572;28;20089;-77
2022/08/31 09:24:26;;;;;;;5.32;2.47;;;24.20;64.60;;;;;;4972251;28;20117;-78
2022/08/31 09:27:17;;;;;;;8.38;2.20;;;24.30;64.60;;;;;;4969080;28;20452;-77
2022/08/31 09:30:01;;;;;;;6.83;2.10;;;24.30;65.00;;;;;;4984450;28;20042;-76
2022/08/31 09:32:30;;;;;;;7.53;2.20;;;24.40;64.80;;;;;;4983514;28;20390;-77
2022/08/31 09:35:03;;;;;;;6.80;2.60;;;24.30;64.40;;;;;;4984675;28;20034;-77
2022/08/31 09:37:44;;;;;;;6.15;2.03;;;24.40;65.10;;;;;;4984621;28;20050;-77
2022/08/31 09:40:17;;;;;;;5.47;1.83;;;24.40;64.70;;;;;;4984455;28;20041;-77
2022/08/31 09:42:47;;;;;;;6.57;1.75;;;24.40;64.40;;;;;;4987398;28;20029;-76
2022/08/31 09:45:28;;;;;;;5.18;2.00;;;24.40;64.20;;;;;;5026097;28;20029;-76
2022/08/31 09:47:59;;;;;;;5.28;1.90;;;24.40;64.00;;;;;;5008923;28;20460;-78
2022/08/31 09:50:46;;;;;;;6.22;1.85;;;24.40;64.10;;;;;;5026083;28;20030;-79
2022/08/31 09:56:13;;;;;;;4.38;1.52;;;24.30;64.40;;;;;;5021349;28;20041;-77
2022/08/31 09:58:54;;;;;;;4.47;2.00;;;24.40;64.50;;;;;;5023759;28;20030;-77
2022/08/31 10:01:43;;;;;;;3.50;1.30;;;24.30;64.00;;;;;;5025792;28;20518;-76
2022/08/31 10:04:15;;;;;;;2.55;1.60;;;24.40;64.00;;;;;;5025650;28;20045;-79
2022/08/31 10:07:10;;;;;;;7.70;1.65;;;24.40;64.20;;;;;;5041555;28;20116;-77
2022/08/31 10:10:08;;;;;;;6.40;1.77;;;24.40;64.10;;;;;;5025181;28;20064;-78
2022/08/31 10:12:48;;;;;;;3.17;1.70;;;24.40;63.20;;;;;;5016322;28;20087;-76
2022/08/31 10:15:29;;;;;;;6.13;1.60;;;24.40;63.50;;;;;;5025592;28;20041;-78
2022/08/31 10:18:15;;;;;;;4.63;1.48;;;24.50;63.50;;;;;;5038395;28;21527;-78
2022/08/31 10:20:55;;;;;;;2.10;1.45;;;24.50;63.10;;;;;;5026109;28;20238;-77
2022/08/31 10:23:53;;;;;;;4.28;1.40;;;24.50;62.80;;;;;;5022734;28;20371;-77
2022/08/31 10:26:45;;;;;;;4.15;1.25;;;24.60;62.90;;;;;;5024929;28;20045;-78
2022/08/31 10:29:25;;;;;;;3.85;1.50;;;24.60;63.30;;;;;;5020573;28;20037;-76
2022/08/31 10:31:56;;;;;;;5.47;1.75;;;24.50;63.30;;;;;;5025459;28;20486;-77
2022/08/31 10:37:24;;;;;;;3.00;1.30;;;24.60;63.40;;;;;;5025224;28;20486;-78
2022/08/31 10:39:57;;;;;;;4.53;1.33;;;24.70;63.30;;;;;;5025130;28;20061;-77
2022/08/31 10:42:37;;;;;;;4.35;1.42;;;24.60;62.80;;;;;;5025466;28;20404;-78
2022/08/31 10:45:15;;;;;;;3.10;1.48;;;24.60;62.90;;;;;;5025568;28;20036;-78
2022/08/31 10:47:54;;;;;;;2.45;1.40;;;24.60;62.50;;;;;;5024949;28;20055;-76
2022/08/31 10:50:44;;;;;;;2.30;1.20;;;24.60;62.70;;;;;;5025997;28;20071;-76
2022/08/31 10:53:43;;;;;;;2.50;1.42;;;24.60;63.20;;;;;;5024446;28;20137;-77
2022/08/31 10:56:40;;;;;;;6.40;1.67;;;24.60;62.20;;;;;;5025169;28;20049;-77
2022/08/31 10:59:40;;;;;;;5.90;1.30;;;24.60;62.40;;;;;;5025555;28;20072;-78
2022/08/31 11:02:38;;;;;;;4.47;1.10;;;24.50;62.80;;;;;;5029154;28;20050;-78
2022/08/31 11:05:25;;;;;;;4.85;1.17;;;24.50;62.90;;;;;;4963822;28;20046;-79
2022/08/31 11:08:00;;;;;;;5.90;1.30;;;24.40;63.80;;;;;;4948110;28;20121;-78
2022/08/31 11:10:50;;;;;;;2.75;1.50;;;24.30;63.90;;;;;;4964131;28;20043;-78
2022/08/31 11:13:52;;;;;;;2.15;1.00;;;24.40;64.20;;;;;;4947565;28;20038;-78
2022/08/31 11:16:37;;;;;;;2.05;1.25;;;24.30;63.90;;;;;;4963587;28;20059;-78
2022/08/31 11:19:26;;;;;;;6.88;1.15;;;24.20;64.90;;;;;;4948370;28;20062;-81
2022/08/31 11:21:58;;;;;;;8.95;1.70;;;24.20;65.80;;;;;;4963563;28;20437;-81
2022/08/31 11:24:45;;;;;;;4.55;1.10;;;24.20;65.90;;;;;;4948482;28;20030;-84
2022/08/31 11:27:52;;;;;;;5.57;1.20;;;24.20;65.90;;;;;;4932597;28;20035;-81
2022/08/31 11:30:30;;;;;;;3.80;1.30;;;24.10;65.90;;;;;;4932697;28;20031;-82
2022/08/31 11:33:06;;;;;;;7.60;1.13;;;24.10;66.00;;;;;;4948006;28;20399;-82
2022/08/31 11:36:00;;;;;;;5.75;1.63;;;24.10;66.20;;;;;;4963799;28;20498;-83
2022/08/31 11:38:50;;;;;;;9.25;1.40;;;24.10;65.70;;;;;;4964175;28;20049;-80
2022/08/31 11:41:38;;;;;;;6.38;1.27;;;24.10;66.00;;;;;;5008988;28;20073;-80
2022/08/31 11:44:07;;;;;;;9.68;1.40;;;24.20;65.90;;;;;;5018483;28;20396;-76
2022/08/31 11:46:33;;;;;;;4.53;1.30;;;24.20;66.10;;;;;;5024063;28;20128;-77
2022/08/31 11:48:59;;;;;;;5.63;1.40;;;24.10;66.60;;;;;;5024302;28;20140;-77
2022/08/31 11:51:32;;;;;;;4.72;1.10;;;24.00;66.60;;;;;;5024404;28;20045;-76
2022/08/31 11:54:00;;;;;;;2.70;1.00;;;24.00;65.90;;;;;;5024359;28;20045;-76
2022/08/31 11:56:46;;;;;;;4.38;0.90;;;24.00;65.20;;;;;;5024540;28;20040;-76
2022/08/31 11:59:25;;;;;;;33.30;1.67;;;24.00;65.00;;;;;;5024934;28;20115;-78
2022/08/31 12:01:54;;;;;;;7.80;0.98;;;24.00;64.70;;;;;;5026271;28;20050;-76
2022/08/31 12:04:40;;;;;;;4.43;1.05;;;24.00;64.00;;;;;;5031232;28;20440;-76
2022/08/31 12:07:10;;;;;;;3.45;0.90;;;24.00;64.90;;;;;;5031489;28;20041;-76
2022/08/31 12:09:54;;;;;;;4.78;1.00;;;23.90;64.60;;;;;;5032841;28;20052;-75
2022/08/31 12:12:32;;;;;;;3.70;0.90;;;24.00;64.50;;;;;;5032933;28;20069;-75
2022/08/31 12:15:34;;;;;;;3.80;0.88;;;23.90;64.60;;;;;;5031697;28;20076;-77
2022/08/31 12:18:18;;;;;;;3.50;0.80;;;23.90;65.40;;;;;;5023847;28;20207;-75
2022/08/31 12:24:15;;;;;;;18.58;1.80;;;23.90;64.60;;;;;;5037755;28;20039;-79
2022/08/31 12:47:09;;;;;;;4.78;0.90;;;23.50;61.70;;;;;;5052049;27;20889;-75
2022/08/31 12:49:53;;;;;;;3.83;0.90;;;23.70;61.70;;;;;;5036697;28;20045;-77
2022/08/31 12:52:28;;;;;;;2.53;0.85;;;23.70;61.90;;;;;;5061507;28;20083;-77
2022/08/31 12:55:14;;;;;;;3.75;0.47;;;23.80;62.40;;;;;;5057526;28;20526;-77
2022/08/31 12:57:40;;;;;;;1.77;0.60;;;23.80;61.40;;;;;;5066725;28;20036;-76
2022/08/31 13:00:32;;;;;;;2.78;0.45;;;23.80;60.80;;;;;;5063219;28;20094;-77
2022/08/31 13:03:14;;;;;;;6.82;1.25;;;23.70;60.30;;;;;;5047355;28;20041;-77
2022/08/31 13:05:41;;;;;;;2.38;0.60;;;23.70;60.00;;;;;;5042611;28;20699;-77
2022/08/31 13:08:23;;;;;;;2.28;0.77;;;23.60;59.80;;;;;;5046054;28;20033;-78
2022/08/31 13:10:49;;;;;;;0.60;0.60;;;23.60;59.80;;;;;;5044816;28;20479;-78
2022/08/31 13:13:27;;;;;;;6.45;0.93;;;23.60;60.30;;;;;;5042140;28;20033;-78
2022/08/31 13:16:06;;;;;;;2.85;0.70;;;23.70;60.20;;;;;;5043576;28;20171;-77
2022/08/31 13:18:34;;;;;;;2.70;0.50;;;23.70;60.30;;;;;;5047074;28;20060;-77
2022/08/31 13:21:04;;;;;;;1.48;0.52;;;23.70;60.20;;;;;;5044064;28;20068;-78
2022/08/31 13:23:46;;;;;;;1.75;0.50;;;23.80;60.00;;;;;;5053128;28;20037;-79
2022/08/31 13:26:24;;;;;;;3.67;0.57;;;23.70;59.30;;;;;;5055928;28;20468;-80
2022/08/31 13:28:56;;;;;;;6.00;0.70;;;23.70;57.20;;;;;;5055900;28;20446;-79
2022/08/31 13:31:26;;;;;;;5.07;0.40;;;23.70;57.70;;;;;;5056175;28;20491;-77
2022/08/31 13:33:59;;;;;;;1.77;0.22;;;23.60;57.50;;;;;;5043137;28;20033;-77
2022/08/31 13:36:36;;;;;;;2.17;0.60;;;23.70;57.40;;;;;;5056940;28;20574;-80
2022/08/31 13:39:27;;;;;;;3.85;0.47;;;23.70;57.40;;;;;;5056381;28;20044;-78
2022/08/31 13:42:04;;;;;;;7.07;0.60;;;23.80;56.80;;;;;;5037723;28;20087;-77
2022/08/31 13:44:36;;;;;;;1.90;0.38;;;23.80;56.50;;;;;;5056626;28;20056;-77
2022/08/31 13:47:11;;;;;;;1.17;0.30;;;23.80;56.80;;;;;;5046955;28;20743;-77
2022/08/31 13:49:40;;;;;;;3.70;0.28;;;23.80;55.80;;;;;;5042903;28;20033;-78
2022/08/31 13:52:17;;;;;;;3.95;0.32;;;23.80;56.00;;;;;;5043102;28;20029;-79
2022/08/31 13:54:43;;;;;;;4.47;0.40;;;23.80;56.10;;;;;;5075794;28;20032;-77
2022/08/31 13:57:27;;;;;;;1.38;0.50;;;23.90;56.40;;;;;;5078584;28;20024;-79
2022/08/31 13:59:53;;;;;;;4.13;0.50;;;23.80;54.40;;;;;;5063280;28;20025;-79